Time;durP1;ratioP1;P1;durP2;ratioP2;P2;SDS_P1;SDS_P2;PMS_P1;PMS_P2;Temp;Humidity;BMP_temperature;BMP_pressure;BME280_temperature;BME280_humidity;BME280_pressure;Samples;Min_cycle;Max_cycle;Signal;HPM_P1;HPM_P2
2021/12/23 00:01:25;;;;;;;65.70;27.90;;;;;;;-2.70;71.04;101071.98;126362;1311;108999;-74
2021/12/23 00:04:31;;;;;;;60.50;27.60;;;;;;;-2.71;71.09;101065.05;126367;1312;108805;-74
2021/12/23 00:07:36;;;;;;;66.30;28.30;;;;;;;-2.75;71.26;101063.60;126398;1310;108868;-73
2021/12/23 00:10:42;;;;;;;58.00;26.80;;;;;;;-2.73;71.05;101058.86;126397;1312;108865;-74
2021/12/23 00:13:59;;;;;;;64.50;27.20;;;;;;;-2.73;71.00;101054.83;126354;1317;109167;-75
2021/12/23 00:17:19;;;;;;;63.20;27.90;;;;;;;-2.73;71.22;101050.66;126341;1310;108747;-77
2021/12/23 00:23:50;;;;;;;60.20;27.20;;;;;;;-2.66;71.37;101048.70;126285;1311;108760;-74
2021/12/23 00:26:56;;;;;;;61.40;27.10;;;;;;;-2.55;71.09;101044.52;126458;1311;108977;-74
2021/12/23 00:30:01;;;;;;;61.20;24.50;;;;;;;-2.48;71.11;101042.36;126318;1311;108899;-76
2021/12/23 00:33:07;;;;;;;67.40;27.80;;;;;;;-2.42;70.93;101043.02;126370;1312;108742;-76
2021/12/23 00:36:13;;;;;;;60.50;26.80;;;;;;;-2.39;70.87;101035.08;126323;1312;108740;-76
2021/12/23 00:39:19;;;;;;;60.30;26.60;;;;;;;-2.35;70.95;101032.01;126274;1312;108545;-75
2021/12/23 00:42:24;;;;;;;60.90;26.80;;;;;;;-2.34;70.86;101030.59;126350;1312;107769;-75
2021/12/23 00:45:30;;;;;;;58.70;26.40;;;;;;;-2.37;70.96;101028.23;126395;1310;108805;-76
2021/12/23 00:48:36;;;;;;;67.10;26.50;;;;;;;-2.42;70.78;101019.52;126462;1311;107055;-75
2021/12/23 00:51:41;;;;;;;58.30;27.40;;;;;;;-2.48;70.77;101015.00;126455;1311;108698;-75
2021/12/23 00:54:47;;;;;;;59.90;26.80;;;;;;;-2.53;70.80;101009.96;126455;1312;109446;-75
2021/12/23 00:57:52;;;;;;;57.60;25.70;;;;;;;-2.60;70.71;101005.82;126282;1311;108849;-76
2021/12/23 01:01:00;;;;;;;65.30;27.80;;;;;;;-2.66;70.88;101005.17;126304;1312;108934;-77
2021/12/23 01:04:06;;;;;;;62.00;26.40;;;;;;;-2.74;70.90;101000.55;126387;1312;108952;-76
2021/12/23 01:07:12;;;;;;;54.30;25.90;;;;;;;-2.81;70.72;100997.30;126343;1310;108797;-76
2021/12/23 01:10:20;;;;;;;58.10;26.00;;;;;;;-2.87;70.72;100994.17;126308;1312;109097;-75
2021/12/23 01:13:28;;;;;;;55.90;25.60;;;;;;;-2.95;70.72;100988.17;126390;1311;108862;-75
2021/12/23 01:16:50;;;;;;;52.70;25.40;;;;;;;-3.06;70.64;100985.20;126380;1311;108647;-75
2021/12/23 01:19:57;;;;;;;58.40;25.60;;;;;;;-3.15;70.55;100979.76;126497;1312;109229;-73
2021/12/23 01:23:05;;;;;;;56.70;25.50;;;;;;;-3.23;70.79;100973.69;126438;1311;108727;-74
2021/12/23 01:26:13;;;;;;;54.10;24.80;;;;;;;-3.29;70.77;100969.04;126381;1312;108892;-76
2021/12/23 01:29:19;;;;;;;53.50;24.00;;;;;;;-3.36;70.64;100973.60;126309;1311;108712;-76
2021/12/23 01:32:24;;;;;;;55.20;24.80;;;;;;;-3.43;70.73;100972.75;126416;1312;108574;-76
2021/12/23 01:35:30;;;;;;;53.20;23.70;;;;;;;-3.49;70.71;100967.90;126438;1311;108816;-77
2021/12/23 01:38:35;;;;;;;53.60;22.50;;;;;;;-3.53;70.76;100956.54;126375;1311;108821;-74
2021/12/23 01:41:41;;;;;;;53.70;22.50;;;;;;;-3.54;70.84;100945.44;126364;1310;108772;-74
2021/12/23 01:44:46;;;;;;;50.70;22.00;;;;;;;-3.49;70.72;100939.90;126423;1311;108932;-74
2021/12/23 01:47:53;;;;;;;48.80;20.90;;;;;;;-3.42;70.82;100941.96;126413;1311;109070;-73
2021/12/23 01:50:59;;;;;;;55.20;22.70;;;;;;;-3.35;70.79;100944.68;126513;1310;107717;-75
2021/12/23 01:54:04;;;;;;;55.50;24.10;;;;;;;-3.25;70.64;100949.06;126419;1311;108840;-75
2021/12/23 01:57:11;;;;;;;54.50;23.10;;;;;;;-3.19;70.78;100948.37;126427;1310;109210;-78
2021/12/23 02:00:20;;;;;;;53.40;23.50;;;;;;;-3.19;70.54;100942.61;126443;1311;108648;-76
2021/12/23 02:03:25;;;;;;;53.20;23.50;;;;;;;-3.18;70.78;100935.27;126386;1312;108359;-75
2021/12/23 02:06:31;;;;;;;49.40;22.80;;;;;;;-3.16;70.73;100923.39;126355;1310;106784;-74
2021/12/23 02:09:36;;;;;;;50.10;22.60;;;;;;;-3.15;70.54;100921.10;126432;1310;108732;-73
2021/12/23 02:12:44;;;;;;;53.20;23.40;;;;;;;-3.19;70.50;100917.91;126391;1312;108926;-74
2021/12/23 02:15:50;;;;;;;48.90;22.50;;;;;;;-3.22;70.67;100914.35;126413;1311;108883;-74
2021/12/23 02:18:55;;;;;;;51.90;23.10;;;;;;;-3.23;70.78;100912.98;126381;1310;117629;-74
2021/12/23 02:22:01;;;;;;;49.40;23.20;;;;;;;-3.24;70.66;100913.21;126467;1312;106780;-77
2021/12/23 02:25:09;;;;;;;54.90;23.90;;;;;;;-3.26;70.66;100909.43;126310;1311;108869;-75
2021/12/23 02:28:19;;;;;;;54.20;24.00;;;;;;;-3.30;70.81;100903.46;126362;1312;108579;-76
2021/12/23 02:31:24;;;;;;;50.10;23.70;;;;;;;-3.29;70.84;100896.66;126338;1312;106697;-75
2021/12/23 02:34:30;;;;;;;55.80;24.70;;;;;;;-3.32;70.91;100890.14;126265;1312;108694;-75
2021/12/23 02:37:35;;;;;;;51.80;24.60;;;;;;;-3.34;70.86;100890.04;126339;1312;108896;-74
2021/12/23 02:40:43;;;;;;;55.90;25.10;;;;;;;-3.37;70.91;100881.25;126387;1315;108411;-74
2021/12/23 02:43:49;;;;;;;57.00;26.40;;;;;;;-3.37;70.99;100880.38;126344;1310;108738;-75
2021/12/23 02:46:54;;;;;;;56.50;25.10;;;;;;;-3.39;70.78;100873.48;126319;1311;107156;-74
2021/12/23 02:50:00;;;;;;;64.60;26.80;;;;;;;-3.41;70.97;100869.36;126281;1315;108693;-74
2021/12/23 02:53:05;;;;;;;56.50;25.10;;;;;;;-3.43;70.85;100871.17;126301;1311;108540;-73
2021/12/23 02:56:15;;;;;;;56.80;25.90;;;;;;;-3.41;71.10;100869.38;126266;1311;107856;-74
2021/12/23 02:59:21;;;;;;;58.40;25.90;;;;;;;-3.32;71.10;100865.29;126339;1312;108992;-74
2021/12/23 03:02:26;;;;;;;53.20;22.80;;;;;;;-3.24;71.15;100855.44;126282;1312;108827;-75
2021/12/23 03:05:32;;;;;;;58.40;24.40;;;;;;;-3.19;70.82;100854.38;126272;1315;107875;-74
2021/12/23 03:08:38;;;;;;;58.40;25.80;;;;;;;-3.17;70.61;100851.02;126258;1312;108840;-77
2021/12/23 03:11:44;;;;;;;60.10;25.70;;;;;;;-3.19;70.66;100844.98;126298;1312;108852;-76
2021/12/23 03:14:49;;;;;;;58.50;25.30;;;;;;;-3.20;70.65;100842.61;126250;1311;107895;-75
2021/12/23 03:17:55;;;;;;;62.40;26.80;;;;;;;-3.21;70.82;100837.08;126266;1310;108852;-73
2021/12/23 03:21:01;;;;;;;63.60;27.20;;;;;;;-3.25;70.49;100829.88;126304;1312;108783;-74
2021/12/23 03:24:07;;;;;;;55.80;25.60;;;;;;;-3.28;70.82;100831.55;126316;1312;108760;-75
2021/12/23 03:27:12;;;;;;;60.90;26.30;;;;;;;-3.27;70.84;100830.14;126261;1312;108888;-75
2021/12/23 03:30:18;;;;;;;63.40;26.80;;;;;;;-3.28;70.89;100821.98;126245;1312;107820;-76
2021/12/23 03:33:23;;;;;;;74.60;31.50;;;;;;;-3.26;71.03;100820.88;126226;1311;107786;-74
2021/12/23 03:36:29;;;;;;;64.10;27.90;;;;;;;-3.24;70.76;100821.52;126259;1310;108928;-74
2021/12/23 03:39:34;;;;;;;56.30;26.00;;;;;;;-3.26;70.90;100816.02;126334;1315;108991;-74
2021/12/23 03:42:40;;;;;;;61.40;27.20;;;;;;;-3.29;70.96;100812.13;126303;1310;108845;-76
2021/12/23 03:45:47;;;;;;;55.40;25.70;;;;;;;-3.29;70.85;100810.72;126275;1312;108992;-78
2021/12/23 03:48:53;;;;;;;56.60;26.70;;;;;;;-3.29;70.99;100809.66;126295;1314;108724;-76
2021/12/23 03:51:58;;;;;;;58.80;27.30;;;;;;;-3.28;70.99;100800.42;126246;1312;106174;-74
2021/12/23 03:55:05;;;;;;;57.30;26.10;;;;;;;-3.27;70.83;100800.37;126324;1311;108744;-75
2021/12/23 03:58:11;;;;;;;57.30;27.00;;;;;;;-3.26;71.14;100796.35;126327;1310;108831;-75
2021/12/23 04:01:16;;;;;;;67.30;28.80;;;;;;;-3.25;71.02;100789.88;126276;1311;108904;-75
2021/12/23 04:04:22;;;;;;;60.50;28.00;;;;;;;-3.23;70.98;100784.40;126270;1312;109477;-78
2021/12/23 04:07:28;;;;;;;58.20;27.20;;;;;;;-3.19;70.99;100773.65;126325;1311;108832;-79
2021/12/23 04:10:34;;;;;;;62.50;28.20;;;;;;;-3.09;71.20;100765.66;126316;1310;108749;-75
2021/12/23 04:13:40;;;;;;;60.00;23.70;;;;;;;-2.97;71.18;100760.90;126261;1311;108849;-75
2021/12/23 04:16:45;;;;;;;64.90;26.80;;;;;;;-2.85;71.06;100753.84;126301;1311;107925;-75
2021/12/23 04:19:51;;;;;;;63.10;27.10;;;;;;;-2.77;71.02;100751.98;126312;1310;108970;-76
2021/12/23 04:22:56;;;;;;;58.60;25.60;;;;;;;-2.72;70.90;100748.15;126283;1310;108766;-75
2021/12/23 04:26:02;;;;;;;62.60;27.50;;;;;;;-2.69;70.89;100745.10;126468;1312;108886;-75
2021/12/23 04:29:08;;;;;;;60.40;27.30;;;;;;;-2.68;70.89;100741.75;126540;1312;108861;-75
2021/12/23 04:32:14;;;;;;;56.60;26.80;;;;;;;-2.70;71.00;100738.52;126649;1310;108800;-75
2021/12/23 04:35:19;;;;;;;57.70;26.60;;;;;;;-2.77;70.81;100734.73;126445;1315;108954;-75
2021/12/23 04:38:25;;;;;;;54.10;25.50;;;;;;;-2.80;70.74;100727.73;126595;1311;108981;-75
2021/12/23 04:41:31;;;;;;;56.10;26.50;;;;;;;-2.85;70.91;100722.48;126648;1312;108919;-78
2021/12/23 04:44:36;;;;;;;55.40;26.60;;;;;;;-2.88;70.71;100712.54;126630;1310;107723;-76
2021/12/23 04:47:42;;;;;;;52.70;26.00;;;;;;;-2.93;70.68;100702.79;126598;1312;108827;-76
2021/12/23 04:50:48;;;;;;;56.60;26.40;;;;;;;-2.97;70.67;100703.11;126594;1311;108384;-78
2021/12/23 04:53:53;;;;;;;53.90;25.80;;;;;;;-3.04;70.78;100699.16;126648;1310;108722;-77
2021/12/23 04:56:59;;;;;;;53.00;25.80;;;;;;;-3.08;70.83;100698.80;126604;1312;108834;-77
2021/12/23 05:00:07;;;;;;;59.40;27.50;;;;;;;-3.12;70.89;100695.48;126655;1312;108822;-77
2021/12/23 05:03:12;;;;;;;58.30;28.00;;;;;;;-3.15;70.87;100694.52;126569;1311;107926;-76
2021/12/23 05:06:18;;;;;;;59.90;27.90;;;;;;;-3.18;71.06;100694.80;126496;1312;107879;-79
2021/12/23 05:09:23;;;;;;;59.10;28.90;;;;;;;-3.19;70.80;100691.36;126626;1311;108824;-76
2021/12/23 05:12:29;;;;;;;64.70;29.30;;;;;;;-3.20;70.75;100685.81;126609;1312;107853;-76
2021/12/23 05:15:34;;;;;;;64.30;29.10;;;;;;;-3.21;71.13;100681.70;126638;1311;108757;-75
2021/12/23 05:18:39;;;;;;;60.90;27.70;;;;;;;-3.24;71.13;100674.33;126547;1312;108872;-76
2021/12/23 05:21:45;;;;;;;58.20;27.60;;;;;;;-3.22;71.04;100670.24;126539;1310;108813;-76
2021/12/23 05:24:52;;;;;;;61.30;27.40;;;;;;;-3.17;71.09;100671.45;126622;1310;108854;-77
2021/12/23 05:27:58;;;;;;;52.40;23.40;;;;;;;-3.09;71.15;100665.27;126646;1312;106861;-76
2021/12/23 05:31:04;;;;;;;64.30;27.90;;;;;;;-2.99;71.16;100662.42;126658;1312;108777;-78
2021/12/23 05:34:10;;;;;;;62.00;27.60;;;;;;;-2.91;70.92;100660.20;126584;1311;108928;-77
2021/12/23 05:37:15;;;;;;;63.90;28.70;;;;;;;-2.86;70.99;100655.17;126323;1311;108730;-78
2021/12/23 05:40:24;;;;;;;62.90;28.70;;;;;;;-2.85;70.83;100645.20;126413;1310;108729;-76
2021/12/23 05:43:29;;;;;;;60.60;28.90;;;;;;;-2.86;70.89;100638.64;126652;1312;108799;-77
2021/12/23 05:46:35;;;;;;;57.30;28.50;;;;;;;-2.89;70.93;100632.66;126643;1310;109227;-72
2021/12/23 05:49:40;;;;;;;79.40;38.40;;;;;;;-2.93;70.86;100625.86;126656;1312;108942;-76
2021/12/23 05:52:46;;;;;;;63.90;30.50;;;;;;;-2.98;70.83;100625.84;126780;1311;108848;-73
2021/12/23 05:55:53;;;;;;;61.80;29.10;;;;;;;-3.02;70.80;100620.79;126613;1311;107745;-74
2021/12/23 05:58:59;;;;;;;53.70;27.70;;;;;;;-3.06;70.85;100615.52;126779;1314;108784;-75
2021/12/23 06:02:06;;;;;;;64.30;30.70;;;;;;;-3.12;70.66;100614.72;126615;1312;108781;-75
2021/12/23 06:05:12;;;;;;;65.70;29.30;;;;;;;-3.19;70.96;100605.20;126634;1311;108949;-80
2021/12/23 06:08:18;;;;;;;65.30;29.80;;;;;;;-3.23;70.94;100602.59;126478;1310;107744;-81
2021/12/23 06:11:23;;;;;;;73.40;33.30;;;;;;;-3.29;70.90;100599.67;126592;1311;107879;-79
2021/12/23 06:14:29;;;;;;;99.00;50.30;;;;;;;-3.34;71.06;100596.89;126666;1310;108779;-79
2021/12/23 06:17:34;;;;;;;74.30;36.20;;;;;;;-3.37;70.99;100599.10;126604;1312;107725;-79
2021/12/23 06:20:40;;;;;;;67.60;32.10;;;;;;;-3.43;70.93;100598.28;126815;1311;108879;-80
2021/12/23 06:23:46;;;;;;;79.00;37.00;;;;;;;-3.45;70.80;100598.38;126671;1312;108983;-80
2021/12/23 06:26:51;;;;;;;63.60;29.80;;;;;;;-3.46;70.95;100599.59;126554;1315;108858;-80
2021/12/23 06:29:56;;;;;;;69.70;32.60;;;;;;;-3.38;71.11;100597.91;126564;1316;108888;-76
2021/12/23 06:33:02;;;;;;;64.10;28.10;;;;;;;-3.27;71.19;100593.89;126767;1312;108861;-76
2021/12/23 06:36:08;;;;;;;69.60;30.00;;;;;;;-3.18;70.90;100589.70;126660;1311;108983;-80
2021/12/23 06:39:13;;;;;;;69.90;31.80;;;;;;;-3.10;70.92;100588.91;126603;1310;108990;-77
2021/12/23 06:42:23;;;;;;;74.00;32.70;;;;;;;-3.05;70.66;100587.64;126645;1311;108681;-79
2021/12/23 06:45:28;;;;;;;75.70;35.60;;;;;;;-3.04;70.68;100584.48;126653;1310;108713;-76
2021/12/23 06:48:34;;;;;;;67.30;31.40;;;;;;;-3.02;70.82;100585.81;126663;1311;108961;-79
2021/12/23 06:51:40;;;;;;;70.50;31.70;;;;;;;-3.03;70.71;100579.56;126505;1312;108992;-76
2021/12/23 06:54:48;;;;;;;62.30;29.40;;;;;;;-3.05;70.87;100576.49;126400;1311;108822;-76
2021/12/23 06:57:56;;;;;;;60.30;27.80;;;;;;;-3.08;70.83;100572.46;126502;1311;108858;-74
2021/12/23 07:01:02;;;;;;;58.60;28.80;;;;;;;-3.11;70.87;100571.89;126465;1312;108787;-78
2021/12/23 07:04:14;;;;;;;63.90;29.90;;;;;;;-3.15;70.82;100564.19;126544;1311;106834;-76
2021/12/23 07:07:27;;;;;;;62.80;29.20;;;;;;;-3.18;70.79;100559.57;126608;1312;109055;-76
2021/12/23 07:10:34;;;;;;;69.60;31.50;;;;;;;-3.19;70.86;100558.94;126626;1315;108949;-79
2021/12/23 07:13:39;;;;;;;63.80;28.20;;;;;;;-3.18;70.86;100558.38;126776;1310;108816;-75
2021/12/23 07:16:45;;;;;;;58.60;28.00;;;;;;;-3.19;70.95;100556.16;126548;1315;108251;-75
2021/12/23 07:19:51;;;;;;;64.40;28.10;;;;;;;-3.19;70.90;100554.41;126402;1311;108836;-75
2021/12/23 07:22:56;;;;;;;63.70;29.40;;;;;;;-3.17;70.80;100552.05;127698;1310;108831;-75
2021/12/23 07:26:02;;;;;;;58.70;28.40;;;;;;;-3.17;70.97;100547.74;126946;1310;109228;-74
2021/12/23 07:29:07;;;;;;;63.70;28.80;;;;;;;-3.16;70.92;100544.39;126580;1311;108853;-74
2021/12/23 07:32:13;;;;;;;65.40;30.40;;;;;;;-3.13;70.70;100540.63;126361;1312;107811;-74
2021/12/23 07:35:19;;;;;;;59.20;27.30;;;;;;;-3.07;70.90;100539.88;126445;1311;108786;-74
2021/12/23 07:38:25;;;;;;;68.70;29.30;;;;;;;-2.97;70.71;100532.70;126627;1311;107815;-74
2021/12/23 07:41:30;;;;;;;57.40;26.40;;;;;;;-2.86;70.67;100528.77;126318;1311;108705;-74
2021/12/23 07:44:36;;;;;;;67.20;28.10;;;;;;;-2.76;70.64;100532.36;126545;1312;107133;-74
2021/12/23 07:47:41;;;;;;;64.70;28.90;;;;;;;-2.68;70.33;100525.46;126368;1311;107096;-74
2021/12/23 07:50:47;;;;;;;57.70;27.10;;;;;;;-2.64;70.49;100523.54;126483;1312;108814;-75
2021/12/23 07:53:54;;;;;;;64.90;28.50;;;;;;;-2.58;70.41;100512.35;126434;1310;107662;-74
2021/12/23 07:56:59;;;;;;;57.90;27.10;;;;;;;-2.59;70.41;100507.48;126336;1312;108545;-74
2021/12/23 08:00:07;;;;;;;62.50;28.60;;;;;;;-2.58;70.17;100498.23;126310;1311;107830;-74
2021/12/23 08:03:19;;;;;;;60.40;28.30;;;;;;;-2.59;70.34;100495.28;126418;1312;108995;-74
2021/12/23 08:06:24;;;;;;;61.50;28.00;;;;;;;-2.59;70.46;100491.13;126654;1311;108981;-74
2021/12/23 08:09:30;;;;;;;59.60;28.50;;;;;;;-2.57;70.38;100487.57;126582;1312;108749;-74
2021/12/23 08:12:35;;;;;;;56.30;28.00;;;;;;;-2.56;70.28;100483.67;126472;1312;108860;-74
2021/12/23 08:15:41;;;;;;;62.60;29.60;;;;;;;-2.55;69.88;100478.06;126401;1312;108613;-74
2021/12/23 08:18:46;;;;;;;62.40;30.20;;;;;;;-2.56;70.13;100474.98;126376;1312;108652;-74
2021/12/23 08:21:52;;;;;;;65.30;30.80;;;;;;;-2.53;70.21;100470.50;126509;1310;108932;-74
2021/12/23 08:24:57;;;;;;;56.50;29.10;;;;;;;-2.49;70.26;100462.83;126544;1310;109420;-75
2021/12/23 08:28:03;;;;;;;57.40;28.10;;;;;;;-2.43;70.23;100456.50;126452;1311;108709;-75
2021/12/23 08:31:09;;;;;;;56.90;28.30;;;;;;;-2.38;70.14;100451.05;126541;1310;107706;-74
2021/12/23 08:34:14;;;;;;;56.50;27.60;;;;;;;-2.33;70.27;100442.67;126528;1311;109108;-74
2021/12/23 08:37:20;;;;;;;56.30;27.10;;;;;;;-2.29;70.08;100439.52;126328;1311;108746;-74
2021/12/23 08:40:28;;;;;;;57.60;28.00;;;;;;;-2.24;69.95;100432.15;126354;1311;109016;-74
2021/12/23 08:43:33;;;;;;;55.70;27.40;;;;;;;-2.18;70.07;100429.09;126349;1311;109026;-74
2021/12/23 08:46:39;;;;;;;54.20;26.70;;;;;;;-2.11;69.97;100429.30;126302;1312;107666;-74
2021/12/23 08:49:46;;;;;;;55.00;26.60;;;;;;;-2.04;69.74;100425.15;126526;1312;108823;-74
2021/12/23 08:52:52;;;;;;;52.30;26.50;;;;;;;-1.99;69.81;100421.96;126385;1312;107375;-74
2021/12/23 08:55:57;;;;;;;55.20;27.90;;;;;;;-1.93;69.81;100412.31;126593;1310;109031;-75
2021/12/23 08:59:03;;;;;;;59.80;29.10;;;;;;;-1.89;70.08;100412.46;126622;1311;108957;-75
2021/12/23 09:02:11;;;;;;;58.50;28.30;;;;;;;-1.83;69.95;100416.38;126519;1311;108937;-75
2021/12/23 09:05:19;;;;;;;54.30;27.20;;;;;;;-1.77;69.97;100414.20;126721;1311;108923;-74
2021/12/23 09:08:25;;;;;;;56.40;27.60;;;;;;;-1.71;69.85;100406.58;126550;1312;108877;-75
2021/12/23 09:11:31;;;;;;;68.40;31.20;;;;;;;-1.66;69.75;100407.59;127674;1311;108896;-75
2021/12/23 09:14:37;;;;;;;58.10;28.60;;;;;;;-1.60;69.66;100399.95;126989;1310;108899;-75
2021/12/23 09:17:42;;;;;;;57.30;27.90;;;;;;;-1.53;69.53;100400.89;126844;1310;108830;-73
2021/12/23 09:20:48;;;;;;;57.30;28.10;;;;;;;-1.47;69.69;100394.64;126814;1311;107500;-73
2021/12/23 09:23:54;;;;;;;56.80;28.20;;;;;;;-1.41;69.43;100386.48;126716;1312;107840;-79
2021/12/23 09:27:09;;;;;;;56.30;26.80;;;;;;;-1.34;69.54;100381.48;126703;1312;108635;-79
2021/12/23 09:33:39;;;;;;;54.60;26.80;;;;;;;-1.22;69.18;100377.23;126263;1312;108930;-75
2021/12/23 09:36:44;;;;;;;82.90;37.40;;;;;;;-1.15;69.45;100375.15;126558;1310;108930;-74
2021/12/23 09:39:54;;;;;;;59.90;28.90;;;;;;;-1.07;69.05;100369.53;126381;1310;106524;-76
2021/12/23 09:43:03;;;;;;;61.00;30.30;;;;;;;-1.04;69.20;100366.03;126758;1312;107953;-74
2021/12/23 09:46:10;;;;;;;55.10;27.80;;;;;;;-0.98;69.02;100364.02;126813;1312;109022;-73
2021/12/23 09:49:17;;;;;;;54.70;27.80;;;;;;;-0.92;69.11;100356.55;126960;1312;108843;-74
2021/12/23 09:52:23;;;;;;;59.30;27.90;;;;;;;-0.86;69.15;100343.98;126882;1312;108929;-74
2021/12/23 09:55:29;;;;;;;51.30;27.80;;;;;;;-0.81;68.93;100336.40;126690;1312;108960;-74
2021/12/23 09:58:35;;;;;;;49.40;26.10;;;;;;;-0.73;69.16;100337.96;126548;1310;106797;-74
2021/12/23 10:01:41;;;;;;;53.00;25.40;;;;;;;-0.63;69.02;100330.80;126862;1310;108797;-74
2021/12/23 10:04:46;;;;;;;48.50;25.50;;;;;;;-0.56;69.04;100324.13;126930;1312;107957;-74
2021/12/23 10:07:54;;;;;;;46.50;24.30;;;;;;;-0.51;68.99;100320.73;126816;1315;108987;-74
2021/12/23 10:11:07;;;;;;;51.50;25.40;;;;;;;-0.45;68.50;100311.67;126624;1315;108808;-74
2021/12/23 10:31:34;;;;;;;48.40;25.90;;;;;;;-0.05;68.61;100256.69;126317;1316;107733;-74
2021/12/23 10:38:07;;;;;;;46.50;25.50;;;;;;;0.10;68.09;100228.43;126843;1310;108911;-76
2021/12/23 10:41:16;;;;;;;46.40;24.30;;;;;;;0.12;68.32;100215.02;126720;1310;107435;-74
2021/12/23 10:44:32;;;;;;;44.40;24.40;;;;;;;0.13;68.32;100210.60;126714;1310;107801;-74
2021/12/23 10:47:47;;;;;;;46.60;24.50;;;;;;;0.14;68.15;100203.85;126703;1312;108846;-75
2021/12/23 10:50:58;;;;;;;43.20;24.00;;;;;;;0.15;68.26;100200.11;126739;1315;107657;-75
2021/12/23 10:57:56;;;;;;;45.60;23.90;;;;;;;0.20;68.12;100184.10;126529;1311;108969;-75
2021/12/23 10:58:02;;;;;;;47.60;23.70;;;;;;;0.23;68.27;100173.80;126246;1312;107661;-75
2021/12/23 11:01:08;;;;;;;42.00;22.50;;;;;;;0.26;68.13;100166.29;126531;1311;108831;-74
2021/12/23 11:04:13;;;;;;;49.40;24.00;;;;;;;0.23;67.72;100159.61;126450;1315;109023;-74
2021/12/23 11:07:24;;;;;;;45.50;24.20;;;;;;;0.24;68.04;100153.27;126422;1311;109006;-74
2021/12/23 11:10:57;;;;;;;44.60;24.40;;;;;;;0.25;67.56;100142.56;126434;1312;109049;-74
2021/12/23 11:28:56;;;;;;;46.90;24.60;;;;;;;0.28;67.60;100105.95;126482;1315;108766;-74
2021/12/23 11:35:33;;;;;;;44.40;23.20;;;;;;;0.29;67.38;100099.96;126608;1311;107784;-74
2021/12/23 11:39:26;;;;;;;43.50;22.90;;;;;;;0.24;67.06;100067.90;126281;1311;108145;-75
2021/12/23 11:42:39;;;;;;;38.50;21.20;;;;;;;0.26;67.20;100060.98;126315;1315;108467;-75
2021/12/23 11:45:50;;;;;;;43.10;22.70;;;;;;;0.26;66.87;100053.58;126402;1311;108940;-76
2021/12/23 11:48:57;;;;;;;40.80;21.30;;;;;;;0.26;66.83;100042.57;126300;1312;106871;-74
2021/12/23 11:52:03;;;;;;;42.50;22.30;;;;;;;0.25;66.96;100030.79;126277;1311;108766;-75
2021/12/23 11:55:10;;;;;;;40.30;21.20;;;;;;;0.24;67.00;100023.45;126379;1311;108888;-75
2021/12/23 11:58:16;;;;;;;38.60;21.90;;;;;;;0.24;66.38;100018.91;126284;1312;106843;-75
2021/12/23 12:01:28;;;;;;;39.30;21.10;;;;;;;0.21;66.61;100014.56;126335;1312;108962;-74
2021/12/23 12:04:37;;;;;;;41.20;23.00;;;;;;;0.16;66.66;100011.84;126295;1315;108906;-75
2021/12/23 12:07:43;;;;;;;40.00;21.80;;;;;;;0.12;66.67;100012.12;126296;1312;107804;-75
2021/12/23 12:10:48;;;;;;;57.60;32.00;;;;;;;0.09;66.79;100009.52;126326;1311;107430;-75
2021/12/23 12:13:54;;;;;;;58.80;32.70;;;;;;;0.07;66.72;100006.64;126389;1315;107785;-75
2021/12/23 12:17:49;;;;;;;44.90;23.90;;;;;;;0.04;66.56;100004.55;126421;1311;108823;-75
2021/12/23 12:20:58;;;;;;;50.80;27.70;;;;;;;-0.04;66.58;99997.49;126285;1315;106663;-74
2021/12/23 12:24:14;;;;;;;47.20;24.20;;;;;;;-0.10;66.11;99988.94;126271;1315;108652;-74
2021/12/23 12:27:20;;;;;;;54.40;30.00;;;;;;;-0.19;66.47;99983.73;126298;1312;109041;-75
2021/12/23 12:30:37;;;;;;;42.00;21.20;;;;;;;-0.23;66.57;99977.86;126414;1317;108292;-72
2021/12/23 12:33:55;;;;;;;42.10;22.60;;;;;;;-0.29;66.29;99975.92;126363;1311;108600;-75
2021/12/23 12:37:01;;;;;;;43.00;23.50;;;;;;;-0.33;66.49;99965.84;126311;1311;108845;-75
2021/12/23 12:40:08;;;;;;;37.00;20.50;;;;;;;-0.36;66.69;99960.29;126616;1311;108588;-75
2021/12/23 12:43:34;;;;;;;39.50;20.90;;;;;;;-0.40;66.51;99952.44;126640;1315;108805;-74
2021/12/23 12:47:11;;;;;;;43.10;20.70;;;;;;;-0.44;66.49;99944.59;126575;1311;109032;-74
2021/12/23 12:50:19;;;;;;;36.50;19.90;;;;;;;-0.45;66.76;99937.17;126544;1315;107891;-74
2021/12/23 12:53:27;;;;;;;38.20;20.10;;;;;;;-0.46;66.62;99936.17;126683;1312;109017;-74
2021/12/23 12:56:34;;;;;;;38.50;20.90;;;;;;;-0.47;66.42;99929.98;126375;1312;108789;-74
2021/12/23 12:59:43;;;;;;;41.30;22.10;;;;;;;-0.49;66.69;99929.05;126584;1316;108863;-75
2021/12/23 13:02:55;;;;;;;37.40;20.00;;;;;;;-0.49;66.77;99923.59;126555;1315;108818;-75
2021/12/23 13:06:03;;;;;;;37.70;19.70;;;;;;;-0.47;66.66;99911.80;126527;1311;109036;-74
2021/12/23 13:09:32;;;;;;;38.50;19.90;;;;;;;-0.48;66.45;99904.31;126597;1317;109011;-74
2021/12/23 13:12:57;;;;;;;36.50;20.80;;;;;;;-0.47;66.91;99904.26;126557;1311;108968;-74
2021/12/23 13:16:35;;;;;;;38.30;20.20;;;;;;;-0.45;66.73;99895.04;126376;1315;108964;-72
2021/12/23 13:19:43;;;;;;;38.80;21.00;;;;;;;-0.43;66.56;99890.92;126492;1315;109065;-72
2021/12/23 13:22:56;;;;;;;40.20;20.50;;;;;;;-0.44;66.66;99899.20;126387;1312;108878;-72
2021/12/23 13:26:04;;;;;;;37.50;20.30;;;;;;;-0.44;66.70;99893.45;126271;1315;107922;-73
2021/12/23 13:29:11;;;;;;;38.40;20.30;;;;;;;-0.45;66.47;99886.34;126282;1316;108925;-72
2021/12/23 13:32:16;;;;;;;40.20;21.00;;;;;;;-0.48;66.49;99880.88;126324;1312;108770;-72
2021/12/23 13:35:22;;;;;;;39.90;21.30;;;;;;;-0.47;66.64;99875.63;126362;1317;109210;-72
2021/12/23 13:38:36;;;;;;;43.60;20.50;;;;;;;-0.49;66.65;99871.68;126364;1318;108877;-75
2021/12/23 13:41:44;;;;;;;43.80;21.20;;;;;;;-0.49;66.52;99863.52;126592;1315;108862;-72
2021/12/23 13:44:51;;;;;;;40.70;20.60;;;;;;;-0.52;66.56;99857.90;126658;1312;107580;-72
2021/12/23 13:47:58;;;;;;;39.50;20.70;;;;;;;-0.56;66.32;99851.14;126611;1316;108849;-72
2021/12/23 13:51:04;;;;;;;42.20;21.20;;;;;;;-0.59;66.66;99850.46;126502;1312;108761;-72
2021/12/23 13:54:13;;;;;;;43.60;21.50;;;;;;;-0.61;66.69;99848.48;126601;1312;108882;-72
2021/12/23 13:57:20;;;;;;;51.80;26.80;;;;;;;-0.65;66.77;99848.89;126374;1315;108811;-71
2021/12/23 14:00:28;;;;;;;43.20;22.00;;;;;;;-0.68;66.86;99851.54;126422;1315;108942;-71
2021/12/23 14:03:33;;;;;;;43.20;21.60;;;;;;;-0.72;66.79;99853.00;126308;1315;108829;-72
2021/12/23 14:06:41;;;;;;;39.40;21.10;;;;;;;-0.79;66.81;99849.52;126464;1315;108921;-71
2021/12/23 14:09:49;;;;;;;40.50;21.10;;;;;;;-0.80;66.79;99847.36;126277;1317;109039;-72
2021/12/23 14:12:56;;;;;;;41.10;20.80;;;;;;;-0.83;66.61;99848.06;126398;1316;108720;-72
2021/12/23 14:16:02;;;;;;;44.20;22.30;;;;;;;-0.87;66.72;99837.30;126301;1315;109227;-72
2021/12/23 14:19:47;;;;;;;40.00;20.60;;;;;;;-0.91;66.61;99830.69;126257;1315;107878;-72
2021/12/23 14:26:29;;;;;;;39.60;21.10;;;;;;;-0.98;66.74;99817.88;126625;1312;108974;-72
2021/12/23 14:29:37;;;;;;;43.00;22.10;;;;;;;-1.03;66.63;99813.06;126490;1311;109012;-72
2021/12/23 14:32:42;;;;;;;36.90;20.20;;;;;;;-1.06;66.72;99809.08;126418;1312;106733;-72
2021/12/23 14:35:57;;;;;;;37.90;20.00;;;;;;;-1.11;66.81;99806.40;126495;1315;108760;-71
2021/12/23 14:39:05;;;;;;;38.50;20.60;;;;;;;-1.16;66.78;99804.24;126371;1315;107860;-72
2021/12/23 14:42:17;;;;;;;45.60;22.70;;;;;;;-1.20;66.91;99799.39;126315;1315;107823;-76
2021/12/23 14:45:24;;;;;;;36.60;19.10;;;;;;;-1.24;66.88;99786.03;126377;1315;108810;-72
2021/12/23 14:48:57;;;;;;;40.80;20.40;;;;;;;-1.27;66.90;99777.98;126494;1315;108984;-72